Fdny M-8 — WDF9767 — position and weather

sailwx.info

Track history (hours):
 
Tides and Currents Weather Stations Pressure Air Temp Water Temp Dewpoint Dewpoint Depression Visibility Wind Speed Wind Dir Waves Ship Positions

Fdny M-8

Owner: NEW YORK CITY FIRE DEPT, BROOKLYN, NY. More information available from US FCC via Universal Licensing System.

Last reported at 2018-Jun-24 14:35 UTC. Time now 2018-Jun-25 15:55 UTC.
Position N 40°35' W 074°04'.

Length 11 m; draft 1 m.

Type: Law enforcement. MMSI: 367508630.

Date/timePositionNaut miles runAvg speedWind from/ knotsBaromVisibWave heightAir tempDewpointWater temp
2018-Jun-24 14:35N 40°35' W 074°04'339.8
2018-Jun-24 14:31N 40°38' W 074°04'3 6.8
2018-Jun-24 14:00N 40°39' W 074°08'2 0.1
2018-Jun-23 18:07N 40°39' W 074°11'331.3
2018-Jun-23 18:00N 40°39' W 074°07'510.7
2018-Jun-23 17:30N 40°43' W 074°02'0 0.7
2018-Jun-23 17:00N 40°43' W 074°03'3 6.4
2018-Jun-23 16:30N 40°42' W 073°58'0 0.0
2018-Jun-23 16:00N 40°42' W 073°58'9 0.4
2018-Jun-22 18:30N 40°39' W 074°10'917.9
2018-Jun-22 18:00N 40°42' W 073°59'0 1.0
2018-Jun-22 17:30N 40°42' W 073°58'3 5.0
2018-Jun-22 17:00N 40°41' W 074°01'9 0.4
2018-Jun-21 18:49N 40°38' W 074°12'724.4
2018-Jun-21 18:31N 40°41' W 074°03'1 1.8
2018-Jun-21 18:00N 40°41' W 074°02'1 2.4
2018-Jun-21 17:30N 40°43' W 074°03'3 5.9
2018-Jun-21 17:00N 40°42' W 073°59'0 0.4
2018-Jun-21 16:30N 40°42' W 073°58'11 0.4
2018-Jun-20 16:28N 40°39' W 074°11'818.1
2018-Jun-20 16:00N 40°41' W 074°01'1 1.2
2018-Jun-20 15:31N 40°40' W 074°01'5 0.2
2018-Jun-19 16:04N 40°36' W 074°02'231.3
2018-Jun-19 16:00N 40°38' W 074°03'510.5
2018-Jun-19 15:31N 40°43' W 074°02'912.4
2018-Jun-19 14:49N 40°39' W 074°11'7 0.1
2018-Jun-17 17:20N 40°38' W 074°03'3 8.3
2018-Jun-17 17:00N 40°40' W 074°01'0 0.1
2018-Jun-17 16:19N 40°40' W 074°01'10 3.5
2018-Jun-17 13:20N 40°30' W 074°00'  
2018-Jun-14 16:23N 40°38' W 074°12'718.8
2018-Jun-14 16:00N 40°40' W 074°03'1 2.9
2018-Jun-14 15:30N 40°40' W 074°01'  
Track history (hours):
 
Tides and Currents Weather Stations Pressure Air Temp Water Temp Dewpoint Dewpoint Depression Visibility Wind Speed Wind Dir Waves Ship Positions

Fdny M-8

Owner: NEW YORK CITY FIRE DEPT, BROOKLYN, NY. More information available from US FCC via Universal Licensing System.

Last reported at 2018-Jun-24 14:35 UTC. Time now 2018-Jun-25 15:55 UTC.
Position N 40°35' W 074°04'.

Length 11 m; draft 1 m.

Type: Law enforcement. MMSI: 367508630.

Date/timePositionNaut miles runAvg speedWind from/ knotsBaromVisibWave heightAir tempDewpointWater temp
2018-Jun-24 14:35N 40°35' W 074°04'339.8
2018-Jun-24 14:31N 40°38' W 074°04'3 6.8
2018-Jun-24 14:00N 40°39' W 074°08'2 0.1
2018-Jun-23 18:07N 40°39' W 074°11'331.3
2018-Jun-23 18:00N 40°39' W 074°07'510.7
2018-Jun-23 17:30N 40°43' W 074°02'0 0.7
2018-Jun-23 17:00N 40°43' W 074°03'3 6.4
2018-Jun-23 16:30N 40°42' W 073°58'0 0.0
2018-Jun-23 16:00N 40°42' W 073°58'9 0.4
2018-Jun-22 18:30N 40°39' W 074°10'917.9
2018-Jun-22 18:00N 40°42' W 073°59'0 1.0
2018-Jun-22 17:30N 40°42' W 073°58'3 5.0
2018-Jun-22 17:00N 40°41' W 074°01'9 0.4
2018-Jun-21 18:49N 40°38' W 074°12'724.4
2018-Jun-21 18:31N 40°41' W 074°03'1 1.8
2018-Jun-21 18:00N 40°41' W 074°02'1 2.4
2018-Jun-21 17:30N 40°43' W 074°03'3 5.9
2018-Jun-21 17:00N 40°42' W 073°59'0 0.4
2018-Jun-21 16:30N 40°42' W 073°58'11 0.4
2018-Jun-20 16:28N 40°39' W 074°11'818.1
2018-Jun-20 16:00N 40°41' W 074°01'1 1.2
2018-Jun-20 15:31N 40°40' W 074°01'5 0.2
2018-Jun-19 16:04N 40°36' W 074°02'231.3
2018-Jun-19 16:00N 40°38' W 074°03'510.5
2018-Jun-19 15:31N 40°43' W 074°02'912.4
2018-Jun-19 14:49N 40°39' W 074°11'7 0.1
2018-Jun-17 17:20N 40°38' W 074°03'3 8.3
2018-Jun-17 17:00N 40°40' W 074°01'0 0.1
2018-Jun-17 16:19N 40°40' W 074°01'10 3.5
2018-Jun-17 13:20N 40°30' W 074°00'  
2018-Jun-14 16:23N 40°38' W 074°12'718.8
2018-Jun-14 16:00N 40°40' W 074°03'1 2.9
2018-Jun-14 15:30N 40°40' W 074°01'  

Dump ship's entire track history